sensor_id;sensor_type;location;lat;lon;timestamp;pressure;altitude;pressure_sealevel;temperature;humidity
78407;BME280;67692;51.074;-1.790;2023-04-03T00:01:53;102514.06;;;5.79;69.40
78407;BME280;67692;51.074;-1.790;2023-04-03T00:04:20;102520.78;;;5.84;70.75
78407;BME280;67692;51.074;-1.790;2023-04-03T00:06:47;102521.72;;;5.82;70.00
78407;BME280;67692;51.074;-1.790;2023-04-03T00:09:13;102521.78;;;5.79;69.56
78407;BME280;67692;51.074;-1.790;2023-04-03T00:11:41;102520.91;;;5.78;69.67
78407;BME280;67692;51.074;-1.790;2023-04-03T00:14:08;102520.00;;;5.81;69.65
78407;BME280;67692;51.074;-1.790;2023-04-03T00:16:35;102518.25;;;5.83;69.50
78407;BME280;67692;51.074;-1.790;2023-04-03T00:19:01;102517.50;;;5.76;69.82
78407;BME280;67692;51.074;-1.790;2023-04-03T00:21:28;102527.00;;;5.73;69.98
78407;BME280;67692;51.074;-1.790;2023-04-03T00:23:54;102520.28;;;5.67;70.36
78407;BME280;67692;51.074;-1.790;2023-04-03T00:26:21;102518.53;;;5.69;70.93
78407;BME280;67692;51.074;-1.790;2023-04-03T00:28:49;102520.31;;;5.65;70.32
78407;BME280;67692;51.074;-1.790;2023-04-03T00:31:15;102515.16;;;5.65;70.24
78407;BME280;67692;51.074;-1.790;2023-04-03T00:33:42;102522.09;;;5.60;70.04
78407;BME280;67692;51.074;-1.790;2023-04-03T00:36:10;102516.06;;;5.63;70.16
78407;BME280;67692;51.074;-1.790;2023-04-03T00:38:36;102511.03;;;5.57;71.59
78407;BME280;67692;51.074;-1.790;2023-04-03T00:41:03;102513.63;;;5.55;71.22
78407;BME280;67692;51.074;-1.790;2023-04-03T00:43:30;102514.56;;;5.53;71.08
78407;BME280;67692;51.074;-1.790;2023-04-03T00:45:58;102509.47;;;5.50;71.66
78407;BME280;67692;51.074;-1.790;2023-04-03T00:48:28;102513.78;;;5.46;71.44
78407;BME280;67692;51.074;-1.790;2023-04-03T00:50:55;102517.19;;;5.48;70.98
78407;BME280;67692;51.074;-1.790;2023-04-03T00:53:26;102518.94;;;5.46;71.37
78407;BME280;67692;51.074;-1.790;2023-04-03T00:55:55;102515.63;;;5.41;71.87
78407;BME280;67692;51.074;-1.790;2023-04-03T00:58:26;102512.28;;;5.36;71.55
78407;BME280;67692;51.074;-1.790;2023-04-03T01:00:59;102516.59;;;5.35;72.81
78407;BME280;67692;51.074;-1.790;2023-04-03T01:03:29;102521.00;;;5.27;73.40
78407;BME280;67692;51.074;-1.790;2023-04-03T01:05:56;102518.47;;;5.26;72.62
78407;BME280;67692;51.074;-1.790;2023-04-03T01:08:23;102514.25;;;5.22;72.62
78407;BME280;67692;51.074;-1.790;2023-04-03T01:10:50;102522.91;;;5.15;73.50
78407;BME280;67692;51.074;-1.790;2023-04-03T01:13:20;102524.66;;;5.13;73.58
78407;BME280;67692;51.074;-1.790;2023-04-03T01:15:47;102516.28;;;5.01;72.96
78407;BME280;67692;51.074;-1.790;2023-04-03T01:18:15;102511.22;;;4.98;73.02
78407;BME280;67692;51.074;-1.790;2023-04-03T01:21:06;102516.28;;;5.01;73.27
78407;BME280;67692;51.074;-1.790;2023-04-03T01:23:45;102521.47;;;4.98;73.61
78407;BME280;67692;51.074;-1.790;2023-04-03T01:26:16;102521.44;;;5.01;73.86
78407;BME280;67692;51.074;-1.790;2023-04-03T01:28:42;102519.72;;;5.00;73.61
78407;BME280;67692;51.074;-1.790;2023-04-03T01:31:15;102519.06;;;4.89;72.96
78407;BME280;67692;51.074;-1.790;2023-04-03T01:33:46;102524.16;;;4.91;73.20
78407;BME280;67692;51.074;-1.790;2023-04-03T01:36:14;102521.72;;;4.83;73.36
78407;BME280;67692;51.074;-1.790;2023-04-03T01:38:41;102520.03;;;4.82;73.82
78407;BME280;67692;51.074;-1.790;2023-04-03T01:41:08;102514.97;;;4.76;73.24
78407;BME280;67692;51.074;-1.790;2023-04-03T01:43:35;102507.28;;;4.77;74.05
78407;BME280;67692;51.074;-1.790;2023-04-03T01:46:01;102517.63;;;4.71;73.36
78407;BME280;67692;51.074;-1.790;2023-04-03T01:48:28;102520.16;;;4.73;73.85
78407;BME280;67692;51.074;-1.790;2023-04-03T01:50:56;102511.69;;;4.68;73.75
78407;BME280;67692;51.074;-1.790;2023-04-03T01:53:22;102503.19;;;4.66;74.33
78407;BME280;67692;51.074;-1.790;2023-04-03T01:55:49;102500.53;;;4.70;74.03
78407;BME280;67692;51.074;-1.790;2023-04-03T01:58:15;102503.03;;;4.75;73.86
78407;BME280;67692;51.074;-1.790;2023-04-03T02:00:42;102504.72;;;4.76;73.67
78407;BME280;67692;51.074;-1.790;2023-04-03T02:03:09;102503.06;;;4.72;74.43
78407;BME280;67692;51.074;-1.790;2023-04-03T02:05:35;102497.94;;;4.72;74.46
78407;BME280;67692;51.074;-1.790;2023-04-03T02:08:04;102498.88;;;4.68;74.03
78407;BME280;67692;51.074;-1.790;2023-04-03T02:10:31;102504.75;;;4.73;73.81
78407;BME280;67692;51.074;-1.790;2023-04-03T02:12:57;102504.88;;;4.67;73.94
78407;BME280;67692;51.074;-1.790;2023-04-03T02:15:24;102508.31;;;4.66;73.49
78407;BME280;67692;51.074;-1.790;2023-04-03T02:17:51;102497.28;;;4.59;73.98
78407;BME280;67692;51.074;-1.790;2023-04-03T02:20:18;102510.19;;;4.55;74.41
78407;BME280;67692;51.074;-1.790;2023-04-03T02:22:45;102516.97;;;4.57;74.12
78407;BME280;67692;51.074;-1.790;2023-04-03T02:25:13;102511.78;;;4.62;72.41
78407;BME280;67692;51.074;-1.790;2023-04-03T02:27:40;102504.94;;;4.64;74.11
78407;BME280;67692;51.074;-1.790;2023-04-03T02:30:07;102516.06;;;4.61;74.25
78407;BME280;67692;51.074;-1.790;2023-04-03T02:32:35;102512.75;;;4.55;74.17
78407;BME280;67692;51.074;-1.790;2023-04-03T02:35:03;102514.50;;;4.53;74.65
78407;BME280;67692;51.074;-1.790;2023-04-03T02:37:30;102518.81;;;4.51;73.46
78407;BME280;67692;51.074;-1.790;2023-04-03T02:39:56;102516.25;;;4.49;73.44
78407;BME280;67692;51.074;-1.790;2023-04-03T02:42:24;102511.13;;;4.49;74.12
78407;BME280;67692;51.074;-1.790;2023-04-03T02:44:51;102519.66;;;4.48;74.30
78407;BME280;67692;51.074;-1.790;2023-04-03T02:47:17;102520.53;;;4.48;72.46
78407;BME280;67692;51.074;-1.790;2023-04-03T02:49:44;102523.94;;;4.47;74.13
78407;BME280;67692;51.074;-1.790;2023-04-03T02:52:11;102509.44;;;4.45;74.65
78407;BME280;67692;51.074;-1.790;2023-04-03T02:54:37;102512.16;;;4.37;74.27
78407;BME280;67692;51.074;-1.790;2023-04-03T02:57:04;102507.06;;;4.31;73.49
78407;BME280;67692;51.074;-1.790;2023-04-03T02:59:34;102515.59;;;4.33;72.79
78407;BME280;67692;51.074;-1.790;2023-04-03T03:02:01;102516.44;;;4.35;73.05
78407;BME280;67692;51.074;-1.790;2023-04-03T03:04:27;102507.78;;;4.42;72.44
78407;BME280;67692;51.074;-1.790;2023-04-03T03:06:54;102506.88;;;4.46;72.20
78407;BME280;67692;51.074;-1.790;2023-04-03T03:09:21;102503.44;;;4.47;71.70
78407;BME280;67692;51.074;-1.790;2023-04-03T03:11:47;102506.97;;;4.40;72.31
78407;BME280;67692;51.074;-1.790;2023-04-03T03:14:14;102504.47;;;4.36;73.31
78407;BME280;67692;51.074;-1.790;2023-04-03T03:16:42;102510.44;;;4.36;72.82
78407;BME280;67692;51.074;-1.790;2023-04-03T03:19:09;102500.97;;;4.41;73.23
78407;BME280;67692;51.074;-1.790;2023-04-03T03:21:35;102495.06;;;4.36;71.89
78407;BME280;67692;51.074;-1.790;2023-04-03T03:24:02;102492.53;;;4.35;71.71
78407;BME280;67692;51.074;-1.790;2023-04-03T03:26:29;102489.94;;;4.33;72.62
78407;BME280;67692;51.074;-1.790;2023-04-03T03:28:55;102503.63;;;4.35;72.54
78407;BME280;67692;51.074;-1.790;2023-04-03T03:31:22;102504.50;;;4.33;73.09
78407;BME280;67692;51.074;-1.790;2023-04-03T03:33:50;102507.94;;;4.32;73.26
78407;BME280;67692;51.074;-1.790;2023-04-03T03:36:16;102503.78;;;4.23;73.32
78407;BME280;67692;51.074;-1.790;2023-04-03T03:38:43;102506.50;;;4.11;73.52
78407;BME280;67692;51.074;-1.790;2023-04-03T03:41:09;102502.28;;;4.07;74.04
78407;BME280;67692;51.074;-1.790;2023-04-03T03:43:36;102494.69;;;3.99;73.55
78407;BME280;67692;51.074;-1.790;2023-04-03T03:46:03;102492.09;;;4.01;73.41
78407;BME280;67692;51.074;-1.790;2023-04-03T03:48:29;102499.75;;;4.05;71.95
78407;BME280;67692;51.074;-1.790;2023-04-03T03:50:57;102496.34;;;4.03;72.03
78407;BME280;67692;51.074;-1.790;2023-04-03T03:53:24;102497.31;;;3.95;72.44
78407;BME280;67692;51.074;-1.790;2023-04-03T03:55:50;102500.94;;;3.75;72.79
78407;BME280;67692;51.074;-1.790;2023-04-03T03:58:17;102497.47;;;3.82;72.41
78407;BME280;67692;51.074;-1.790;2023-04-03T04:00:43;102499.97;;;3.87;72.83
78407;BME280;67692;51.074;-1.790;2023-04-03T04:03:10;102488.13;;;3.78;72.58
78407;BME280;67692;51.074;-1.790;2023-04-03T04:05:37;102487.28;;;3.76;72.22
78407;BME280;67692;51.074;-1.790;2023-04-03T04:08:05;102484.59;;;3.85;72.63
78407;BME280;67692;51.074;-1.790;2023-04-03T04:10:32;102492.25;;;3.92;72.57
78407;BME280;67692;51.074;-1.790;2023-04-03T04:12:58;102489.78;;;3.81;72.16
78407;BME280;67692;51.074;-1.790;2023-04-03T04:15:25;102479.44;;;3.92;72.15
78407;BME280;67692;51.074;-1.790;2023-04-03T04:17:52;102490.59;;;3.84;72.35
78407;BME280;67692;51.074;-1.790;2023-04-03T04:20:18;102486.28;;;3.86;72.84
78407;BME280;67692;51.074;-1.790;2023-04-03T04:22:45;102477.75;;;3.86;72.20
78407;BME280;67692;51.074;-1.790;2023-04-03T04:25:13;102482.88;;;3.87;73.05
78407;BME280;67692;51.074;-1.790;2023-04-03T04:27:40;102483.75;;;3.85;72.02
78407;BME280;67692;51.074;-1.790;2023-04-03T04:30:08;102481.06;;;3.97;71.84
78407;BME280;67692;51.074;-1.790;2023-04-03T04:32:35;102488.81;;;3.93;72.44
78407;BME280;67692;51.074;-1.790;2023-04-03T04:35:02;102477.75;;;3.86;72.30
78407;BME280;67692;51.074;-1.790;2023-04-03T04:37:29;102478.66;;;3.83;72.66
78407;BME280;67692;51.074;-1.790;2023-04-03T04:39:56;102478.50;;;3.96;72.33
78407;BME280;67692;51.074;-1.790;2023-04-03T04:42:24;102477.81;;;3.83;72.17
78407;BME280;67692;51.074;-1.790;2023-04-03T04:44:50;102478.69;;;3.80;73.04
78407;BME280;67692;51.074;-1.790;2023-04-03T04:47:17;102472.75;;;3.75;72.21
78407;BME280;67692;51.074;-1.790;2023-04-03T04:49:44;102484.03;;;3.62;72.96
78407;BME280;67692;51.074;-1.790;2023-04-03T04:52:12;102471.22;;;3.64;72.31
78407;BME280;67692;51.074;-1.790;2023-04-03T04:54:39;102474.66;;;3.59;73.24
78407;BME280;67692;51.074;-1.790;2023-04-03T04:57:05;102472.03;;;3.67;72.66
78407;BME280;67692;51.074;-1.790;2023-04-03T04:59:33;102475.59;;;3.54;72.96
78407;BME280;67692;51.074;-1.790;2023-04-03T05:02:00;102471.31;;;3.53;73.38
78407;BME280;67692;51.074;-1.790;2023-04-03T05:04:27;102471.34;;;3.51;73.20
78407;BME280;67692;51.074;-1.790;2023-04-03T05:06:53;102473.09;;;3.45;73.44
78407;BME280;67692;51.074;-1.790;2023-04-03T05:09:20;102481.72;;;3.39;73.89
78407;BME280;67692;51.074;-1.790;2023-04-03T05:11:46;102474.91;;;3.37;73.09
78407;BME280;67692;51.074;-1.790;2023-04-03T05:14:13;102470.63;;;3.39;73.00
78407;BME280;67692;51.074;-1.790;2023-04-03T05:16:41;102471.53;;;3.35;73.57
78407;BME280;67692;51.074;-1.790;2023-04-03T05:19:08;102474.84;;;3.41;73.99
78407;BME280;67692;51.074;-1.790;2023-04-03T05:21:34;102470.66;;;3.33;73.56
78407;BME280;67692;51.074;-1.790;2023-04-03T05:24:01;102473.31;;;3.25;73.65
78407;BME280;67692;51.074;-1.790;2023-04-03T05:26:29;102476.63;;;3.36;72.90
78407;BME280;67692;51.074;-1.790;2023-04-03T05:28:55;102470.53;;;3.45;73.51
78407;BME280;67692;51.074;-1.790;2023-04-03T05:31:22;102472.41;;;3.34;73.31
78407;BME280;67692;51.074;-1.790;2023-04-03T05:33:50;102477.53;;;3.31;72.94
78407;BME280;67692;51.074;-1.790;2023-04-03T05:36:17;102469.91;;;3.24;73.48
78407;BME280;67692;51.074;-1.790;2023-04-03T05:38:43;102462.28;;;3.21;72.97
78407;BME280;67692;51.074;-1.790;2023-04-03T05:41:10;102472.44;;;3.27;73.93
78407;BME280;67692;51.074;-1.790;2023-04-03T05:43:37;102463.06;;;3.26;74.27
78407;BME280;67692;51.074;-1.790;2023-04-03T05:46:05;102462.06;;;3.40;73.72
78407;BME280;67692;51.074;-1.790;2023-04-03T05:48:33;102460.44;;;3.33;73.00
78407;BME280;67692;51.074;-1.790;2023-04-03T05:51:01;102462.16;;;3.34;73.75
78407;BME280;67692;51.074;-1.790;2023-04-03T05:53:29;102468.97;;;3.35;72.83
78407;BME280;67692;51.074;-1.790;2023-04-03T05:55:57;102468.13;;;3.34;73.90
78407;BME280;67692;51.074;-1.790;2023-04-03T05:58:24;102463.94;;;3.25;73.77
78407;BME280;67692;51.074;-1.790;2023-04-03T06:00:51;102466.44;;;3.28;73.55
78407;BME280;67692;51.074;-1.790;2023-04-03T06:03:17;102465.59;;;3.29;73.21
78407;BME280;67692;51.074;-1.790;2023-04-03T06:05:44;102466.50;;;3.25;73.88
78407;BME280;67692;51.074;-1.790;2023-04-03T06:08:12;102454.56;;;3.23;74.80
78407;BME280;67692;51.074;-1.790;2023-04-03T06:10:40;102462.25;;;3.23;74.60
78407;BME280;67692;51.074;-1.790;2023-04-03T06:13:06;102466.44;;;3.33;73.63
78407;BME280;67692;51.074;-1.790;2023-04-03T06:15:33;102464.69;;;3.32;73.71
78407;BME280;67692;51.074;-1.790;2023-04-03T06:18:00;102468.88;;;3.41;73.35
78407;BME280;67692;51.074;-1.790;2023-04-03T06:20:26;102472.25;;;3.46;73.88
78407;BME280;67692;51.074;-1.790;2023-04-03T06:22:53;102467.09;;;3.50;73.62
78407;BME280;67692;51.074;-1.790;2023-04-03T06:25:21;102469.56;;;3.56;73.80
78407;BME280;67692;51.074;-1.790;2023-04-03T06:27:47;102457.59;;;3.58;73.28
78407;BME280;67692;51.074;-1.790;2023-04-03T06:30:14;102459.38;;;3.53;73.67
78407;BME280;67692;51.074;-1.790;2023-04-03T06:32:41;102463.56;;;3.59;73.76
78407;BME280;67692;51.074;-1.790;2023-04-03T06:35:09;102461.88;;;3.56;73.35
78407;BME280;67692;51.074;-1.790;2023-04-03T06:37:36;102462.78;;;3.54;73.20
78407;BME280;67692;51.074;-1.790;2023-04-03T06:40:03;102459.25;;;3.64;73.70
78407;BME280;67692;51.074;-1.790;2023-04-03T06:42:32;102465.25;;;3.63;73.89
78407;BME280;67692;51.074;-1.790;2023-04-03T06:44:58;102465.13;;;3.71;73.44
78407;BME280;67692;51.074;-1.790;2023-04-03T06:47:25;102465.13;;;3.72;73.82
78407;BME280;67692;51.074;-1.790;2023-04-03T06:49:52;102463.38;;;3.74;73.79
78407;BME280;67692;51.074;-1.790;2023-04-03T06:52:19;102470.19;;;3.75;73.95
78407;BME280;67692;51.074;-1.790;2023-04-03T06:54:45;102474.53;;;3.70;74.32
78407;BME280;67692;51.074;-1.790;2023-04-03T06:57:12;102465.03;;;3.81;73.74
78407;BME280;67692;51.074;-1.790;2023-04-03T06:59:42;102471.72;;;3.93;73.87
78407;BME280;67692;51.074;-1.790;2023-04-03T07:02:11;102478.47;;;3.99;73.78
78407;BME280;67692;51.074;-1.790;2023-04-03T07:04:38;102463.94;;;3.99;73.58
78407;BME280;67692;51.074;-1.790;2023-04-03T07:07:04;102466.44;;;4.05;73.93
78407;BME280;67692;51.074;-1.790;2023-04-03T07:09:31;102469.81;;;4.07;73.54
78407;BME280;67692;51.074;-1.790;2023-04-03T07:11:58;102472.34;;;4.10;74.27
78407;BME280;67692;51.074;-1.790;2023-04-03T07:14:24;102474.78;;;4.18;74.60
78407;BME280;67692;51.074;-1.790;2023-04-03T07:16:52;102480.75;;;4.20;74.00
78407;BME280;67692;51.074;-1.790;2023-04-03T07:19:19;102475.69;;;4.15;74.28
78407;BME280;67692;51.074;-1.790;2023-04-03T07:21:46;102479.00;;;4.24;74.35
78407;BME280;67692;51.074;-1.790;2023-04-03T07:24:13;102461.06;;;4.22;74.25
78407;BME280;67692;51.074;-1.790;2023-04-03T07:26:40;102467.97;;;4.17;74.19
78407;BME280;67692;51.074;-1.790;2023-04-03T07:29:06;102466.97;;;4.27;74.73
78407;BME280;67692;51.074;-1.790;2023-04-03T07:31:33;102463.50;;;4.30;74.50
78407;BME280;67692;51.074;-1.790;2023-04-03T07:34:01;102461.75;;;4.35;74.61
78407;BME280;67692;51.074;-1.790;2023-04-03T07:36:28;102461.56;;;4.48;75.05
78407;BME280;67692;51.074;-1.790;2023-04-03T07:38:58;102461.56;;;4.48;74.40
78407;BME280;67692;51.074;-1.790;2023-04-03T07:41:25;102459.72;;;4.55;73.95
78407;BME280;67692;51.074;-1.790;2023-04-03T07:43:51;102458.97;;;4.48;74.77
78407;BME280;67692;51.074;-1.790;2023-04-03T07:46:18;102463.94;;;4.58;74.26
78407;BME280;67692;51.074;-1.790;2023-04-03T07:48:46;102456.28;;;4.56;74.38
78407;BME280;67692;51.074;-1.790;2023-04-03T07:51:14;102461.50;;;4.52;74.18
78407;BME280;67692;51.074;-1.790;2023-04-03T07:53:41;102456.19;;;4.61;74.21
78407;BME280;67692;51.074;-1.790;2023-04-03T07:56:08;102453.59;;;4.65;73.66
78407;BME280;67692;51.074;-1.790;2023-04-03T07:58:36;102457.06;;;4.60;74.36
78407;BME280;67692;51.074;-1.790;2023-04-03T08:01:03;102457.84;;;4.66;74.14
78407;BME280;67692;51.074;-1.790;2023-04-03T08:03:31;102455.09;;;4.77;74.81
78407;BME280;67692;51.074;-1.790;2023-04-03T08:06:02;102455.09;;;4.78;74.01
78407;BME280;67692;51.074;-1.790;2023-04-03T08:08:31;102461.81;;;4.84;74.25
78407;BME280;67692;51.074;-1.790;2023-04-03T08:10:58;102453.97;;;4.93;73.58
78407;BME280;67692;51.074;-1.790;2023-04-03T08:13:26;102463.44;;;4.90;73.80
78407;BME280;67692;51.074;-1.790;2023-04-03T08:15:53;102453.91;;;4.98;72.99
78407;BME280;67692;51.074;-1.790;2023-04-03T08:18:19;102470.09;;;5.01;73.51
78407;BME280;67692;51.074;-1.790;2023-04-03T08:20:50;102449.59;;;4.98;73.80
78407;BME280;67692;51.074;-1.790;2023-04-03T08:23:16;102461.44;;;5.05;73.14
78407;BME280;67692;51.074;-1.790;2023-04-03T08:25:44;102456.31;;;5.05;73.82
78407;BME280;67692;51.074;-1.790;2023-04-03T08:28:12;102461.22;;;5.18;72.94
78407;BME280;67692;51.074;-1.790;2023-04-03T08:30:39;102466.28;;;5.24;72.73
78407;BME280;67692;51.074;-1.790;2023-04-03T08:33:06;102458.41;;;5.31;72.89
78407;BME280;67692;51.074;-1.790;2023-04-03T08:35:33;102462.47;;;5.43;72.94
78407;BME280;67692;51.074;-1.790;2023-04-03T08:38:04;102460.63;;;5.51;72.74
78407;BME280;67692;51.074;-1.790;2023-04-03T08:40:30;102469.00;;;5.59;72.56
78407;BME280;67692;51.074;-1.790;2023-04-03T08:43:04;102455.19;;;5.66;72.50
78407;BME280;67692;51.074;-1.790;2023-04-03T08:45:45;102455.13;;;5.70;71.80
78407;BME280;67692;51.074;-1.790;2023-04-03T08:48:15;102457.34;;;5.86;72.18
78407;BME280;67692;51.074;-1.790;2023-04-03T08:50:47;102458.16;;;5.90;71.93
78407;BME280;67692;51.074;-1.790;2023-04-03T08:53:16;102458.06;;;5.93;71.31
78407;BME280;67692;51.074;-1.790;2023-04-03T08:55:46;102454.44;;;6.03;71.68
78407;BME280;67692;51.074;-1.790;2023-04-03T08:58:18;102462.78;;;6.14;70.94
78407;BME280;67692;51.074;-1.790;2023-04-03T09:00:47;102461.75;;;6.21;70.71
78407;BME280;67692;51.074;-1.790;2023-04-03T09:03:16;102455.78;;;6.19;69.99
78407;BME280;67692;51.074;-1.790;2023-04-03T09:05:47;102455.75;;;6.22;70.91
78407;BME280;67692;51.074;-1.790;2023-04-03T09:08:22;102452.22;;;6.26;70.36
78407;BME280;67692;51.074;-1.790;2023-04-03T09:10:55;102457.28;;;6.30;71.57
78407;BME280;67692;51.074;-1.790;2023-04-03T09:13:30;102446.00;;;6.35;70.26
78407;BME280;67692;51.074;-1.790;2023-04-03T09:16:02;102444.78;;;6.50;71.32
78407;BME280;67692;51.074;-1.790;2023-04-03T09:18:39;102448.84;;;6.60;69.76
78407;BME280;67692;51.074;-1.790;2023-04-03T09:21:16;102447.06;;;6.62;68.17
78407;BME280;67692;51.074;-1.790;2023-04-03T09:23:45;102447.72;;;6.72;67.88
78407;BME280;67692;51.074;-1.790;2023-04-03T09:26:16;102445.84;;;6.77;68.01
78407;BME280;67692;51.074;-1.790;2023-04-03T09:28:45;102443.25;;;6.78;67.44
78407;BME280;67692;51.074;-1.790;2023-04-03T09:31:19;102448.84;;;6.96;67.24
78407;BME280;67692;51.074;-1.790;2023-04-03T09:33:48;102443.69;;;6.96;66.02
78407;BME280;67692;51.074;-1.790;2023-04-03T09:36:37;102451.13;;;7.06;65.98
78407;BME280;67692;51.074;-1.790;2023-04-03T09:39:04;102450.88;;;7.15;65.60
78407;BME280;67692;51.074;-1.790;2023-04-03T09:41:31;102454.19;;;7.21;65.46
78407;BME280;67692;51.074;-1.790;2023-04-03T09:43:59;102451.22;;;7.34;65.10
78407;BME280;67692;51.074;-1.790;2023-04-03T09:46:30;102445.94;;;7.40;66.03
78407;BME280;67692;51.074;-1.790;2023-04-03T09:48:59;102445.50;;;7.56;66.75
78407;BME280;67692;51.074;-1.790;2023-04-03T09:51:27;102454.63;;;7.67;64.54
78407;BME280;67692;51.074;-1.790;2023-04-03T09:53:54;102452.22;;;7.91;64.20
78407;BME280;67692;51.074;-1.790;2023-04-03T09:56:24;102446.78;;;8.00;61.94
78407;BME280;67692;51.074;-1.790;2023-04-03T09:58:52;102450.91;;;8.05;62.41
78407;BME280;67692;51.074;-1.790;2023-04-03T10:01:36;102448.16;;;8.12;61.43
78407;BME280;67692;51.074;-1.790;2023-04-03T10:04:09;102444.31;;;8.25;59.59
78407;BME280;67692;51.074;-1.790;2023-04-03T10:06:38;102431.41;;;8.25;59.21
78407;BME280;67692;51.074;-1.790;2023-04-03T10:09:17;102427.50;;;8.41;59.15
78407;BME280;67692;51.074;-1.790;2023-04-03T10:12:02;102428.78;;;8.54;58.63
78407;BME280;67692;51.074;-1.790;2023-04-03T10:14:31;102427.03;;;8.55;58.12
78407;BME280;67692;51.074;-1.790;2023-04-03T10:17:06;102427.84;;;8.57;57.95
78407;BME280;67692;51.074;-1.790;2023-04-03T10:19:41;102432.06;;;8.59;58.73
78407;BME280;67692;51.074;-1.790;2023-04-03T10:22:16;102425.22;;;8.30;57.39
78407;BME280;67692;51.074;-1.790;2023-04-03T10:24:51;102434.03;;;8.23;57.80
78407;BME280;67692;51.074;-1.790;2023-04-03T10:27:26;102430.53;;;8.24;58.95
78407;BME280;67692;51.074;-1.790;2023-04-03T10:30:04;102433.66;;;8.35;59.20
78407;BME280;67692;51.074;-1.790;2023-04-03T10:32:47;102433.69;;;8.62;58.46
78407;BME280;67692;51.074;-1.790;2023-04-03T10:35:22;102438.69;;;8.67;58.04
78407;BME280;67692;51.074;-1.790;2023-04-03T10:38:01;102431.94;;;8.62;57.91
78407;BME280;67692;51.074;-1.790;2023-04-03T10:40:34;102426.59;;;8.69;59.17
78407;BME280;67692;51.074;-1.790;2023-04-03T10:43:09;102426.16;;;8.81;59.97
78407;BME280;67692;51.074;-1.790;2023-04-03T10:45:49;102424.78;;;8.95;57.39
78407;BME280;67692;51.074;-1.790;2023-04-03T10:48:29;102428.72;;;9.07;57.05
78407;BME280;67692;51.074;-1.790;2023-04-03T10:51:04;102427.50;;;9.17;57.16
78407;BME280;67692;51.074;-1.790;2023-04-03T10:53:39;102430.81;;;9.21;57.92
78407;BME280;67692;51.074;-1.790;2023-04-03T10:56:13;102434.25;;;9.21;56.64
78407;BME280;67692;51.074;-1.790;2023-04-03T10:58:44;102428.22;;;9.21;56.34
78407;BME280;67692;51.074;-1.790;2023-04-03T11:01:14;102428.69;;;9.32;57.07
78407;BME280;67692;51.074;-1.790;2023-04-03T11:03:46;102433.22;;;9.25;57.05
78407;BME280;67692;51.074;-1.790;2023-04-03T11:06:15;102416.50;;;9.12;56.29
78407;BME280;67692;51.074;-1.790;2023-04-03T11:08:45;102417.88;;;9.21;56.78
78407;BME280;67692;51.074;-1.790;2023-04-03T11:11:16;102420.88;;;9.34;55.50
78407;BME280;67692;51.074;-1.790;2023-04-03T11:13:48;102413.91;;;9.36;57.67
78407;BME280;67692;51.074;-1.790;2023-04-03T11:16:19;102409.66;;;9.35;57.19
78407;BME280;67692;51.074;-1.790;2023-04-03T11:18:52;102410.66;;;9.31;55.65
78407;BME280;67692;51.074;-1.790;2023-04-03T11:21:24;102410.06;;;9.22;55.51
78407;BME280;67692;51.074;-1.790;2023-04-03T11:23:56;102406.19;;;9.11;55.59
78407;BME280;67692;51.074;-1.790;2023-04-03T11:26:27;102412.84;;;9.18;56.53
78407;BME280;67692;51.074;-1.790;2023-04-03T11:28:58;102415.03;;;9.29;55.98
78407;BME280;67692;51.074;-1.790;2023-04-03T11:31:36;102403.38;;;9.42;55.77
78407;BME280;67692;51.074;-1.790;2023-04-03T11:34:19;102404.22;;;9.42;55.88
78407;BME280;67692;51.074;-1.790;2023-04-03T11:36:52;102396.38;;;9.44;53.94
78407;BME280;67692;51.074;-1.790;2023-04-03T11:39:22;102399.75;;;9.46;54.80
78407;BME280;67692;51.074;-1.790;2023-04-03T11:41:50;102395.81;;;9.59;54.82
78407;BME280;67692;51.074;-1.790;2023-04-03T11:44:30;102401.97;;;9.57;54.55
78407;BME280;67692;51.074;-1.790;2023-04-03T11:47:00;102403.84;;;9.51;55.31
78407;BME280;67692;51.074;-1.790;2023-04-03T11:49:54;102393.81;;;9.44;53.14
78407;BME280;67692;51.074;-1.790;2023-04-03T11:52:55;102386.72;;;9.49;53.38
78407;BME280;67692;51.074;-1.790;2023-04-03T11:55:51;102391.38;;;9.63;52.95
78407;BME280;67692;51.074;-1.790;2023-04-03T11:58:19;102385.13;;;9.68;53.69
78407;BME280;67692;51.074;-1.790;2023-04-03T12:00:55;102383.34;;;9.70;53.83
78407;BME280;67692;51.074;-1.790;2023-04-03T12:07:02;102367.69;;;9.73;53.10
78407;BME280;67692;51.074;-1.790;2023-04-03T12:09:33;102365.03;;;9.75;54.24
78407;BME280;67692;51.074;-1.790;2023-04-03T12:12:22;102365.69;;;9.80;54.14
78407;BME280;67692;51.074;-1.790;2023-04-03T12:14:51;102366.66;;;9.77;52.54
78407;BME280;67692;51.074;-1.790;2023-04-03T12:17:22;102356.38;;;9.76;53.03
78407;BME280;67692;51.074;-1.790;2023-04-03T12:19:51;102356.03;;;9.85;52.53
78407;BME280;67692;51.074;-1.790;2023-04-03T12:22:20;102359.41;;;9.87;51.89
78407;BME280;67692;51.074;-1.790;2023-04-03T12:24:49;102351.03;;;9.80;53.83
78407;BME280;67692;51.074;-1.790;2023-04-03T12:27:33;102351.44;;;9.92;53.63
78407;BME280;67692;51.074;-1.790;2023-04-03T12:30:17;102342.13;;;9.88;52.90
78407;BME280;67692;51.074;-1.790;2023-04-03T12:33:02;102337.84;;;9.87;53.24
78407;BME280;67692;51.074;-1.790;2023-04-03T12:35:35;102335.97;;;9.90;53.20
78407;BME280;67692;51.074;-1.790;2023-04-03T12:41:24;102335.22;;;9.88;52.00
78407;BME280;67692;51.074;-1.790;2023-04-03T12:44:05;102335.91;;;9.92;53.04
78407;BME280;67692;51.074;-1.790;2023-04-03T12:46:36;102330.19;;;10.05;52.44
78407;BME280;67692;51.074;-1.790;2023-04-03T12:49:14;102333.81;;;10.01;52.12
78407;BME280;67692;51.074;-1.790;2023-04-03T12:51:46;102332.78;;;10.05;53.60
78407;BME280;67692;51.074;-1.790;2023-04-03T12:54:16;102329.94;;;10.11;52.14
78407;BME280;67692;51.074;-1.790;2023-04-03T12:56:44;102329.31;;;10.28;52.55
78407;BME280;67692;51.074;-1.790;2023-04-03T12:59:16;102335.84;;;10.37;54.05
78407;BME280;67692;51.074;-1.790;2023-04-03T13:01:43;102327.50;;;10.30;51.54
78407;BME280;67692;51.074;-1.790;2023-04-03T13:04:10;102321.72;;;10.24;52.00
78407;BME280;67692;51.074;-1.790;2023-04-03T13:06:39;102319.88;;;10.26;51.52
78407;BME280;67692;51.074;-1.790;2023-04-03T13:09:20;102321.34;;;10.33;52.81